Time;durP1;ratioP1;P1;durP2;ratioP2;P2;SDS_P1;SDS_P2;PMS_P1;PMS_P2;Temp;Humidity;BMP_temperature;BMP_pressure;BME280_temperature;BME280_humidity;BME280_pressure;Samples;Min_cycle;Max_cycle;Signal;HPM_P1;HPM_P2
2023/05/14 00:00:04;;;;;;;2.30;2.10;;;;;;;;;;5049450;28;20692;-81
2023/05/14 00:02:30;;;;;;;2.30;1.80;;;;;;;;;;5049216;28;20207;-81
2023/05/14 00:04:57;;;;;;;3.77;2.00;;;;;;;;;;5048901;28;20202;-79
2023/05/14 00:07:29;;;;;;;1.90;1.80;;;;;;;;;;5037578;28;20198;-80
2023/05/14 00:09:56;;;;;;;2.50;2.30;;;;;;;;;;5048770;28;20222;-80
2023/05/14 00:12:22;;;;;;;1.97;1.87;;;;;;;;;;5049679;28;20201;-80
2023/05/14 00:14:49;;;;;;;1.57;1.47;;;;;;;;;;5048162;28;20251;-81
2023/05/14 00:17:16;;;;;;;2.47;2.27;;;;;;;;;;5049265;28;20205;-80
2023/05/14 00:19:43;;;;;;;3.03;2.30;;;;;;;;;;5048819;28;20206;-80
2023/05/14 00:22:10;;;;;;;3.87;2.30;;;;;;;;;;5049017;28;20212;-80
2023/05/14 00:24:38;;;;;;;3.23;2.40;;;;;;;;;;5035803;28;20213;-81
2023/05/14 00:27:05;;;;;;;2.87;2.67;;;;;;;;;;5049197;28;20270;-81
2023/05/14 00:29:32;;;;;;;2.17;2.03;;;;;;;;;;5049363;28;20221;-80
2023/05/14 00:31:58;;;;;;;14.43;2.47;;;;;;;;;;5049110;28;20212;-81
2023/05/14 00:34:25;;;;;;;2.53;2.33;;;;;;;;;;5048680;28;20206;-80
2023/05/14 00:36:52;;;;;;;2.27;2.10;;;;;;;;;;5038262;28;20213;-81
2023/05/14 00:39:19;;;;;;;3.10;1.90;;;;;;;;;;5046648;28;20699;-80
2023/05/14 00:41:47;;;;;;;2.53;2.20;;;;;;;;;;5047905;28;20206;-80
2023/05/14 00:44:14;;;;;;;2.37;1.87;;;;;;;;;;5048420;28;20738;-81
2023/05/14 00:46:42;;;;;;;6.47;2.53;;;;;;;;;;5038506;28;20235;-80
2023/05/14 00:49:09;;;;;;;3.20;2.17;;;;;;;;;;5042048;28;20317;-80
2023/05/14 00:51:36;;;;;;;4.67;2.17;;;;;;;;;;5030744;28;20205;-80
2023/05/14 00:54:02;;;;;;;3.63;2.00;;;;;;;;;;5045756;28;20229;-81
2023/05/14 00:56:29;;;;;;;2.30;2.10;;;;;;;;;;5048626;28;20258;-80
2023/05/14 00:58:57;;;;;;;6.13;4.33;;;;;;;;;;5047411;28;20210;-80
2023/05/14 01:01:27;;;;;;;4.63;3.50;;;;;;;;;;5047778;28;20206;-81
2023/05/14 01:03:56;;;;;;;3.07;2.77;;;;;;;;;;5047922;28;20203;-80
2023/05/14 01:06:27;;;;;;;3.30;3.00;;;;;;;;;;5036414;28;20255;-80
2023/05/14 01:09:09;;;;;;;5.07;2.50;;;;;;;;;;5043488;28;20233;-80
2023/05/14 01:11:41;;;;;;;4.17;2.87;;;;;;;;;;5043208;28;20680;-80
2023/05/14 01:14:14;;;;;;;2.87;2.63;;;;;;;;;;5048388;28;20738;-80
2023/05/14 01:16:43;;;;;;;3.27;2.60;;;;;;;;;;5048169;28;20206;-80
2023/05/14 01:19:21;;;;;;;6.13;2.53;;;;;;;;;;5048157;28;20202;-81
2023/05/14 01:21:49;;;;;;;2.80;2.47;;;;;;;;;;5047866;28;20250;-80
2023/05/14 01:24:15;;;;;;;3.57;2.80;;;;;;;;;;5048515;28;20594;-80
2023/05/14 01:26:42;;;;;;;2.87;2.60;;;;;;;;;;5047819;28;20660;-80
2023/05/14 01:29:16;;;;;;;2.63;2.43;;;;;;;;;;5047945;28;20222;-80
2023/05/14 01:31:44;;;;;;;4.03;2.53;;;;;;;;;;5048187;28;20231;-80
2023/05/14 01:34:12;;;;;;;3.17;2.70;;;;;;;;;;5047988;28;20569;-81
2023/05/14 01:36:39;;;;;;;2.60;2.40;;;;;;;;;;5047604;28;20216;-80
2023/05/14 01:39:08;;;;;;;2.53;2.13;;;;;;;;;;5048022;28;20297;-80
2023/05/14 01:41:36;;;;;;;2.33;2.13;;;;;;;;;;5047533;28;20240;-81
2023/05/14 01:44:03;;;;;;;2.50;2.30;;;;;;;;;;5047775;28;20209;-81
2023/05/14 01:46:31;;;;;;;2.50;2.30;;;;;;;;;;5041889;28;20742;-81
2023/05/14 01:48:58;;;;;;;4.70;2.33;;;;;;;;;;5043907;28;20775;-80
2023/05/14 01:51:25;;;;;;;2.10;1.90;;;;;;;;;;5048056;28;20202;-80
2023/05/14 01:53:51;;;;;;;2.30;2.00;;;;;;;;;;5047798;28;20221;-80
2023/05/14 01:56:22;;;;;;;2.50;2.30;;;;;;;;;;5038031;28;20660;-81
2023/05/14 01:58:49;;;;;;;3.47;2.03;;;;;;;;;;5031672;28;20206;-80
2023/05/14 02:01:15;;;;;;;3.00;2.30;;;;;;;;;;5047344;28;20213;-80
2023/05/14 02:03:42;;;;;;;2.27;2.17;;;;;;;;;;5030342;28;20213;-80
2023/05/14 02:06:09;;;;;;;2.80;2.50;;;;;;;;;;5038503;28;20593;-80
2023/05/14 02:08:36;;;;;;;2.83;2.63;;;;;;;;;;5046892;28;20212;-80
2023/05/14 02:11:03;;;;;;;2.33;2.13;;;;;;;;;;5047008;28;20569;-81
2023/05/14 02:13:31;;;;;;;2.50;2.30;;;;;;;;;;5047625;28;20251;-80
2023/05/14 02:15:58;;;;;;;11.17;6.70;;;;;;;;;;5047185;28;20258;-80
2023/05/14 02:18:24;;;;;;;8.07;4.83;;;;;;;;;;5046904;28;20198;-80
2023/05/14 02:20:51;;;;;;;2.87;2.57;;;;;;;;;;5047345;28;20209;-80
2023/05/14 02:23:18;;;;;;;3.33;2.10;;;;;;;;;;5033888;28;20194;-80
2023/05/14 02:25:44;;;;;;;2.90;2.30;;;;;;;;;;5046723;28;20592;-80
2023/05/14 02:28:11;;;;;;;2.43;2.23;;;;;;;;;;5033807;28;20210;-80
2023/05/14 02:30:39;;;;;;;2.30;2.20;;;;;;;;;;5047208;28;20665;-81
2023/05/14 02:33:06;;;;;;;1.80;1.70;;;;;;;;;;5036770;28;20210;-80
2023/05/14 02:35:33;;;;;;;2.43;2.23;;;;;;;;;;5043784;28;20584;-81
2023/05/14 02:38:00;;;;;;;3.40;2.97;;;;;;;;;;5046831;28;20202;-80
2023/05/14 02:40:27;;;;;;;3.27;2.80;;;;;;;;;;5046897;28;20194;-80
2023/05/14 02:42:54;;;;;;;2.43;2.10;;;;;;;;;;5031713;28;20203;-81
2023/05/14 02:45:21;;;;;;;3.10;2.83;;;;;;;;;;5040552;28;20680;-80
2023/05/14 02:47:49;;;;;;;3.07;2.83;;;;;;;;;;5045821;28;20284;-80
2023/05/14 02:50:16;;;;;;;2.70;2.50;;;;;;;;;;5032857;28;20300;-80
2023/05/14 02:52:43;;;;;;;2.60;2.40;;;;;;;;;;5034018;28;20198;-79
2023/05/14 02:55:11;;;;;;;3.00;2.70;;;;;;;;;;5045856;27;20210;-81
2023/05/14 02:57:38;;;;;;;3.90;3.57;;;;;;;;;;5029593;28;20209;-80
2023/05/14 03:00:07;;;;;;;2.87;2.67;;;;;;;;;;5047239;28;20672;-80
2023/05/14 03:02:35;;;;;;;3.87;2.83;;;;;;;;;;5037286;27;20210;-81
2023/05/14 03:05:04;;;;;;;4.87;2.97;;;;;;;;;;5041463;28;20700;-80
2023/05/14 03:07:31;;;;;;;3.43;3.13;;;;;;;;;;5039726;28;20218;-81
2023/05/14 03:09:59;;;;;;;3.27;2.27;;;;;;;;;;5025703;28;20238;-80
2023/05/14 03:12:26;;;;;;;2.50;2.30;;;;;;;;;;5044582;28;20258;-80
2023/05/14 03:14:53;;;;;;;2.90;2.43;;;;;;;;;;5043165;28;20209;-81
2023/05/14 03:17:19;;;;;;;3.37;2.70;;;;;;;;;;5044209;28;20253;-80
2023/05/14 03:19:49;;;;;;;2.40;2.20;;;;;;;;;;5035029;28;20713;-80
2023/05/14 03:22:17;;;;;;;2.93;2.63;;;;;;;;;;5047698;28;20202;-80
2023/05/14 03:24:44;;;;;;;3.00;2.80;;;;;;;;;;5049685;28;20639;-80
2023/05/14 03:27:11;;;;;;;2.83;2.53;;;;;;;;;;5049370;28;20198;-81
2023/05/14 03:29:37;;;;;;;2.63;2.43;;;;;;;;;;5049586;28;20768;-80
2023/05/14 03:32:05;;;;;;;4.60;2.93;;;;;;;;;;5049741;28;20200;-81
2023/05/14 03:34:32;;;;;;;5.10;4.30;;;;;;;;;;5049547;28;20614;-83
2023/05/14 03:36:58;;;;;;;4.87;4.23;;;;;;;;;;5047210;28;20206;-81
2023/05/14 03:39:27;;;;;;;4.60;4.20;;;;;;;;;;5037148;28;20284;-83
2023/05/14 03:41:55;;;;;;;2.90;2.70;;;;;;;;;;5023838;28;20278;-84
2023/05/14 03:44:23;;;;;;;3.27;2.97;;;;;;;;;;5045317;28;20206;-85
2023/05/14 03:46:50;;;;;;;2.20;2.00;;;;;;;;;;5028774;28;20233;-86
2023/05/14 03:49:17;;;;;;;2.30;2.10;;;;;;;;;;5030300;28;20229;-86
2023/05/14 03:51:45;;;;;;;2.60;2.40;;;;;;;;;;5024434;28;20206;-85
2023/05/14 03:54:12;;;;;;;2.77;2.53;;;;;;;;;;5032061;28;20213;-86
2023/05/14 03:56:40;;;;;;;2.67;2.47;;;;;;;;;;5050104;28;20603;-85
2023/05/14 03:59:07;;;;;;;2.33;2.13;;;;;;;;;;5043827;28;20199;-86
2023/05/14 04:01:34;;;;;;;2.53;2.33;;;;;;;;;;5028217;28;20219;-87
2023/05/14 04:04:01;;;;;;;4.33;3.93;;;;;;;;;;5008997;28;20207;-87
2023/05/14 04:06:28;;;;;;;5.17;4.67;;;;;;;;;;5021866;28;20627;-85
2023/05/14 04:08:55;;;;;;;5.70;5.20;;;;;;;;;;5029743;28;20263;-85
2023/05/14 04:11:22;;;;;;;6.00;5.40;;;;;;;;;;5029879;28;20338;-86
2023/05/14 04:13:51;;;;;;;5.40;4.90;;;;;;;;;;5022080;28;20660;-84
2023/05/14 04:16:18;;;;;;;4.90;4.50;;;;;;;;;;5048585;28;20638;-84
2023/05/14 04:18:45;;;;;;;5.27;4.77;;;;;;;;;;5035934;28;20226;-84
2023/05/14 04:21:13;;;;;;;8.87;4.43;;;;;;;;;;5030853;28;20210;-84
2023/05/14 04:23:40;;;;;;;4.20;3.73;;;;;;;;;;5035681;28;20607;-84
2023/05/14 04:26:07;;;;;;;4.37;3.97;;;;;;;;;;5032835;28;20214;-84
2023/05/14 04:28:34;;;;;;;6.60;5.03;;;;;;;;;;5019415;28;20215;-84
2023/05/14 04:31:02;;;;;;;16.80;12.40;;;;;;;;;;5021764;28;20229;-85
2023/05/14 04:33:29;;;;;;;7.37;6.63;;;;;;;;;;5036038;28;20210;-85
2023/05/14 04:35:56;;;;;;;7.90;6.23;;;;;;;;;;5033989;28;20673;-84
2023/05/14 04:38:23;;;;;;;14.97;5.73;;;;;;;;;;5029669;28;20206;-85
2023/05/14 04:40:49;;;;;;;4.90;3.40;;;;;;;;;;5044186;28;20285;-84
2023/05/14 04:43:16;;;;;;;4.20;2.97;;;;;;;;;;5040431;28;20284;-84
2023/05/14 04:45:43;;;;;;;3.33;3.03;;;;;;;;;;5042415;28;20229;-85
2023/05/14 04:48:11;;;;;;;3.97;3.33;;;;;;;;;;5029710;28;20259;-85
2023/05/14 04:50:38;;;;;;;4.33;2.90;;;;;;;;;;5032092;28;20223;-84
2023/05/14 04:53:05;;;;;;;3.30;3.00;;;;;;;;;;5039792;28;20240;-84
2023/05/14 04:55:32;;;;;;;4.33;3.73;;;;;;;;;;5029269;28;20202;-85
2023/05/14 04:57:58;;;;;;;4.50;3.37;;;;;;;;;;5039286;28;20206;-84
2023/05/14 05:00:25;;;;;;;3.23;2.93;;;;;;;;;;5048831;28;20206;-84
2023/05/14 05:02:53;;;;;;;5.63;2.53;;;;;;;;;;5048921;28;20691;-85
2023/05/14 05:05:21;;;;;;;3.20;2.90;;;;;;;;;;5032729;28;20197;-85
2023/05/14 05:07:48;;;;;;;9.70;8.70;;;;;;;;;;5039746;28;20209;-84
2023/05/14 05:10:15;;;;;;;4.77;3.57;;;;;;;;;;5048578;28;20233;-84
2023/05/14 05:12:42;;;;;;;5.23;3.53;;;;;;;;;;5037699;28;20681;-85
2023/05/14 05:15:09;;;;;;;6.93;3.97;;;;;;;;;;5046576;28;20205;-84
2023/05/14 05:17:36;;;;;;;4.50;3.13;;;;;;;;;;5048922;28;20213;-85
2023/05/14 05:20:08;;;;;;;4.17;3.60;;;;;;;;;;5030241;28;20238;-84
2023/05/14 05:22:36;;;;;;;3.00;2.60;;;;;;;;;;5028779;28;20600;-84
2023/05/14 05:25:05;;;;;;;3.60;3.30;;;;;;;;;;5034566;28;20698;-84
2023/05/14 05:27:31;;;;;;;3.97;3.57;;;;;;;;;;5035961;28;20210;-84
2023/05/14 05:29:58;;;;;;;8.93;7.57;;;;;;;;;;5042110;28;20254;-84
2023/05/14 05:32:25;;;;;;;5.43;2.90;;;;;;;;;;5028350;28;20202;-85
2023/05/14 05:34:52;;;;;;;3.57;3.27;;;;;;;;;;5015665;28;20202;-85
2023/05/14 05:37:19;;;;;;;3.47;2.50;;;;;;;;;;5028475;28;20206;-86
2023/05/14 05:39:48;;;;;;;3.67;3.37;;;;;;;;;;5041244;28;20209;-85
2023/05/14 05:42:15;;;;;;;3.53;2.80;;;;;;;;;;5028787;28;20206;-85
2023/05/14 05:44:41;;;;;;;2.53;2.33;;;;;;;;;;5035268;28;20285;-85
2023/05/14 05:47:08;;;;;;;2.63;2.17;;;;;;;;;;5034522;28;20712;-85
2023/05/14 05:49:36;;;;;;;2.53;2.00;;;;;;;;;;5040926;28;20566;-84
2023/05/14 05:52:03;;;;;;;9.90;2.43;;;;;;;;;;5029818;28;20213;-84
2023/05/14 05:54:32;;;;;;;2.50;2.30;;;;;;;;;;5048255;28;20206;-84
2023/05/14 05:57:00;;;;;;;2.97;2.60;;;;;;;;;;5047748;28;20631;-84
2023/05/14 05:59:30;;;;;;;2.60;2.13;;;;;;;;;;5039458;28;20195;-85
2023/05/14 06:01:56;;;;;;;3.10;1.83;;;;;;;;;;5031021;28;20707;-85
2023/05/14 06:04:23;;;;;;;5.43;2.40;;;;;;;;;;5047959;28;20213;-85
2023/05/14 06:06:50;;;;;;;2.30;2.10;;;;;;;;;;5047898;28;20672;-84
2023/05/14 06:09:17;;;;;;;4.60;2.40;;;;;;;;;;5048066;28;20206;-85
2023/05/14 06:11:44;;;;;;;2.63;2.43;;;;;;;;;;5034395;28;20312;-84
2023/05/14 06:14:12;;;;;;;2.83;2.63;;;;;;;;;;5037975;27;20272;-85
2023/05/14 06:16:38;;;;;;;6.80;3.57;;;;;;;;;;5041267;28;20263;-87
2023/05/14 06:19:07;;;;;;;2.63;2.43;;;;;;;;;;5038837;28;20202;-85
2023/05/14 06:21:33;;;;;;;4.00;3.40;;;;;;;;;;5047844;28;20213;-85
2023/05/14 06:24:00;;;;;;;3.27;2.30;;;;;;;;;;5036471;28;20214;-85
2023/05/14 06:26:27;;;;;;;6.63;4.50;;;;;;;;;;5041063;28;20206;-84
2023/05/14 06:28:54;;;;;;;4.33;2.60;;;;;;;;;;5039223;28;20206;-85
2023/05/14 06:31:22;;;;;;;11.97;8.67;;;;;;;;;;5047179;28;20235;-84
2023/05/14 06:33:50;;;;;;;4.87;4.20;;;;;;;;;;5036464;28;20203;-84
2023/05/14 06:36:16;;;;;;;8.37;6.07;;;;;;;;;;5045898;28;20266;-85
2023/05/14 06:38:43;;;;;;;7.47;2.37;;;;;;;;;;5047864;28;20261;-84
2023/05/14 06:41:10;;;;;;;2.70;2.10;;;;;;;;;;5047454;28;20202;-87
2023/05/14 06:43:37;;;;;;;3.03;2.50;;;;;;;;;;5034994;28;20198;-84
2023/05/14 06:46:04;;;;;;;6.00;2.53;;;;;;;;;;5032801;28;20239;-84
2023/05/14 06:48:32;;;;;;;2.73;2.23;;;;;;;;;;5047555;28;20206;-84
2023/05/14 06:50:59;;;;;;;3.10;2.77;;;;;;;;;;5041377;28;20266;-84
2023/05/14 06:53:25;;;;;;;2.13;2.03;;;;;;;;;;5027719;28;20652;-84
2023/05/14 06:55:53;;;;;;;3.80;2.93;;;;;;;;;;5047526;28;20213;-85
2023/05/14 06:58:19;;;;;;;6.03;3.40;;;;;;;;;;5050728;28;20262;-84
2023/05/14 07:00:46;;;;;;;4.03;3.17;;;;;;;;;;5044298;28;20213;-84
2023/05/14 07:03:13;;;;;;;3.37;2.70;;;;;;;;;;5043945;28;20217;-85
2023/05/14 07:05:43;;;;;;;3.10;2.00;;;;;;;;;;5024890;28;20216;-84
2023/05/14 07:08:10;;;;;;;3.40;2.60;;;;;;;;;;5037349;28;20252;-84
2023/05/14 07:10:39;;;;;;;7.10;2.53;;;;;;;;;;5042559;28;20230;-83
2023/05/14 07:13:08;;;;;;;3.93;2.53;;;;;;;;;;5031103;28;20204;-84
2023/05/14 07:15:37;;;;;;;2.53;2.30;;;;;;;;;;5038944;28;20209;-84
2023/05/14 07:18:04;;;;;;;3.83;3.00;;;;;;;;;;5035511;28;20206;-84
2023/05/14 07:20:32;;;;;;;4.40;3.43;;;;;;;;;;5030478;28;20598;-83
2023/05/14 07:23:00;;;;;;;5.17;3.20;;;;;;;;;;5032847;28;20270;-83
2023/05/14 07:25:27;;;;;;;3.20;2.80;;;;;;;;;;5050324;28;20223;-84
2023/05/14 07:27:54;;;;;;;4.47;3.40;;;;;;;;;;5037120;28;20194;-84
2023/05/14 07:30:21;;;;;;;5.73;3.60;;;;;;;;;;5050463;28;20240;-84
2023/05/14 07:32:48;;;;;;;2.97;2.77;;;;;;;;;;5049906;28;20205;-84
2023/05/14 07:35:15;;;;;;;6.17;2.53;;;;;;;;;;5039879;27;20210;-85
2023/05/14 07:37:45;;;;;;;6.83;3.77;;;;;;;;;;5030404;28;20669;-84
2023/05/14 07:40:13;;;;;;;3.80;3.13;;;;;;;;;;5030945;28;20206;-84
2023/05/14 07:42:40;;;;;;;4.90;4.03;;;;;;;;;;5043710;28;20695;-84
2023/05/14 07:45:09;;;;;;;6.77;3.70;;;;;;;;;;5041761;28;20213;-83
2023/05/14 07:47:36;;;;;;;5.37;3.80;;;;;;;;;;5031991;28;20303;-84
2023/05/14 07:50:08;;;;;;;6.47;5.07;;;;;;;;;;5041652;28;20210;-84
2023/05/14 07:52:35;;;;;;;5.87;3.13;;;;;;;;;;5036476;28;20290;-84
2023/05/14 07:55:03;;;;;;;8.13;3.23;;;;;;;;;;5037552;28;20251;-83
2023/05/14 07:57:31;;;;;;;3.20;2.77;;;;;;;;;;5035867;28;20206;-83
2023/05/14 07:59:58;;;;;;;4.20;3.40;;;;;;;;;;5049574;28;20267;-84
2023/05/14 08:02:25;;;;;;;6.83;4.03;;;;;;;;;;5023331;28;20205;-84
2023/05/14 08:04:52;;;;;;;4.23;3.13;;;;;;;;;;5049887;28;20206;-84
2023/05/14 08:07:19;;;;;;;4.70;3.50;;;;;;;;;;5036893;28;20202;-84
2023/05/14 08:09:46;;;;;;;5.57;4.67;;;;;;;;;;5049090;28;20286;-84
2023/05/14 08:12:14;;;;;;;6.23;4.17;;;;;;;;;;5037393;28;20228;-84
2023/05/14 08:14:43;;;;;;;3.13;2.93;;;;;;;;;;5035196;28;20297;-84
2023/05/14 08:17:10;;;;;;;7.07;4.17;;;;;;;;;;5030039;28;20198;-84
2023/05/14 08:19:37;;;;;;;3.10;2.80;;;;;;;;;;5042579;28;20206;-84
2023/05/14 08:22:04;;;;;;;3.30;2.70;;;;;;;;;;5030152;28;20621;-84
2023/05/14 08:24:34;;;;;;;7.17;2.93;;;;;;;;;;5031440;28;20207;-84
2023/05/14 08:27:01;;;;;;;5.50;5.00;;;;;;;;;;5049118;28;20214;-84
2023/05/14 08:29:29;;;;;;;5.83;5.33;;;;;;;;;;5046950;28;20297;-84
2023/05/14 08:31:57;;;;;;;5.80;3.97;;;;;;;;;;5038707;28;20230;-83
2023/05/14 08:34:24;;;;;;;4.20;3.73;;;;;;;;;;5032882;28;20211;-84
2023/05/14 08:36:52;;;;;;;4.90;4.50;;;;;;;;;;5039212;28;20325;-85
2023/05/14 08:39:18;;;;;;;3.63;3.40;;;;;;;;;;5035744;28;20281;-85
2023/05/14 08:41:45;;;;;;;4.37;3.97;;;;;;;;;;5039356;28;20198;-84
2023/05/14 08:44:13;;;;;;;2.97;2.67;;;;;;;;;;5043560;28;20207;-84
2023/05/14 08:46:43;;;;;;;3.30;2.60;;;;;;;;;;5039788;28;20305;-85
2023/05/14 08:49:16;;;;;;;3.80;2.90;;;;;;;;;;5044841;28;20202;-84
2023/05/14 08:51:45;;;;;;;3.73;3.00;;;;;;;;;;5041071;28;20233;-84
2023/05/14 08:54:15;;;;;;;6.73;3.07;;;;;;;;;;5035799;28;20206;-85
2023/05/14 08:56:44;;;;;;;4.23;3.10;;;;;;;;;;5049345;28;20209;-84
2023/05/14 08:59:11;;;;;;;8.03;4.53;;;;;;;;;;5035671;28;20727;-84
2023/05/14 09:01:38;;;;;;;6.40;5.40;;;;;;;;;;5035806;28;20259;-84
2023/05/14 09:04:07;;;;;;;5.73;5.23;;;;;;;;;;5035655;28;20281;-84
2023/05/14 09:06:36;;;;;;;8.13;6.40;;;;;;;;;;5047262;28;20680;-84
2023/05/14 09:09:03;;;;;;;11.13;9.10;;;;;;;;;;5029265;28;20402;-84
2023/05/14 09:11:30;;;;;;;9.63;5.70;;;;;;;;;;5041693;28;20234;-84
2023/05/14 09:13:58;;;;;;;17.93;15.10;;;;;;;;;;5037134;28;20254;-84
2023/05/14 09:16:27;;;;;;;7.90;6.13;;;;;;;;;;5033006;28;20737;-84
2023/05/14 09:18:54;;;;;;;8.07;7.33;;;;;;;;;;5037239;28;20202;-84
2023/05/14 09:21:21;;;;;;;8.67;5.83;;;;;;;;;;5045995;28;20202;-84
2023/05/14 09:23:53;;;;;;;10.73;7.30;;;;;;;;;;5037580;28;20675;-84
2023/05/14 09:26:24;;;;;;;21.00;10.27;;;;;;;;;;5034739;28;20206;-84
2023/05/14 09:28:55;;;;;;;26.23;15.17;;;;;;;;;;5038092;28;20288;-85
2023/05/14 09:31:23;;;;;;;31.40;17.03;;;;;;;;;;5041818;28;20629;-85
2023/05/14 09:33:51;;;;;;;48.57;26.67;;;;;;;;;;5040080;28;20212;-84
2023/05/14 09:36:18;;;;;;;52.70;26.53;;;;;;;;;;5030151;27;20226;-84
2023/05/14 09:38:45;;;;;;;17.80;13.23;;;;;;;;;;5040471;28;20262;-84
2023/05/14 09:41:13;;;;;;;24.70;22.23;;;;;;;;;;5043473;28;20575;-85
2023/05/14 09:43:40;;;;;;;9.57;8.50;;;;;;;;;;5028575;28;20199;-85
2023/05/14 09:46:09;;;;;;;10.27;8.53;;;;;;;;;;5048171;28;20229;-85
2023/05/14 09:48:36;;;;;;;7.73;5.67;;;;;;;;;;5048786;28;20263;-85
2023/05/14 09:51:05;;;;;;;5.00;4.50;;;;;;;;;;5041703;28;20457;-85
2023/05/14 09:53:33;;;;;;;5.03;3.77;;;;;;;;;;5028322;28;20210;-85
2023/05/14 09:56:00;;;;;;;4.73;4.03;;;;;;;;;;5015418;28;20227;-86
2023/05/14 09:58:28;;;;;;;6.93;5.03;;;;;;;;;;5028566;28;20685;-85
2023/05/14 10:00:57;;;;;;;10.47;7.93;;;;;;;;;;5041079;28;20712;-86
2023/05/14 10:03:25;;;;;;;12.60;8.97;;;;;;;;;;5043100;28;20213;-87
2023/05/14 10:05:52;;;;;;;11.07;7.83;;;;;;;;;;5040217;28;20206;-86
2023/05/14 10:08:24;;;;;;;7.90;6.60;;;;;;;;;;5041102;28;20568;-86
2023/05/14 10:10:51;;;;;;;7.27;6.43;;;;;;;;;;5028685;28;20209;-86
2023/05/14 10:13:21;;;;;;;6.30;5.63;;;;;;;;;;5030453;28;20261;-86
2023/05/14 10:15:54;;;;;;;9.03;7.10;;;;;;;;;;5038880;28;20217;-86
2023/05/14 10:18:24;;;;;;;8.37;7.57;;;;;;;;;;5041922;28;20206;-86
2023/05/14 10:21:00;;;;;;;9.17;7.97;;;;;;;;;;5039377;28;20314;-86
2023/05/14 10:23:27;;;;;;;11.80;10.57;;;;;;;;;;5029190;28;20202;-86
2023/05/14 10:25:54;;;;;;;7.63;6.83;;;;;;;;;;5041481;28;20214;-85
2023/05/14 10:28:21;;;;;;;6.57;5.97;;;;;;;;;;5028026;28;20688;-85
2023/05/14 10:30:49;;;;;;;8.90;8.07;;;;;;;;;;5029108;28;20334;-84
2023/05/14 10:33:17;;;;;;;8.07;7.27;;;;;;;;;;5031862;28;20271;-85
2023/05/14 10:36:06;;;;;;;9.60;8.03;;;;;;;;;;5031066;28;20701;-85
2023/05/14 10:38:35;;;;;;;6.57;5.97;;;;;;;;;;5031693;28;20207;-85
2023/05/14 10:41:04;;;;;;;5.23;4.57;;;;;;;;;;5044273;28;20203;-84
2023/05/14 10:43:38;;;;;;;6.13;5.23;;;;;;;;;;5031842;28;20202;-84
2023/05/14 10:46:07;;;;;;;14.80;12.33;;;;;;;;;;5031285;28;20226;-84
2023/05/14 10:48:35;;;;;;;12.73;10.60;;;;;;;;;;5043912;28;20206;-83
2023/05/14 10:51:02;;;;;;;21.90;17.90;;;;;;;;;;5031758;28;20260;-84
2023/05/14 10:53:34;;;;;;;22.70;20.30;;;;;;;;;;5044146;28;20274;-84
2023/05/14 10:56:07;;;;;;;18.57;14.97;;;;;;;;;;5018414;28;20656;-84
2023/05/14 10:58:38;;;;;;;8.73;8.03;;;;;;;;;;5030675;28;20206;-84
2023/05/14 11:01:08;;;;;;;7.10;6.40;;;;;;;;;;5039951;28;20645;-83
2023/05/14 11:03:41;;;;;;;13.37;12.07;;;;;;;;;;5048118;28;20652;-84
2023/05/14 11:06:09;;;;;;;33.40;24.50;;;;;;;;;;5030719;28;20290;-84
2023/05/14 11:08:37;;;;;;;57.90;40.73;;;;;;;;;;5031182;28;20214;-84
2023/05/14 11:11:04;;;;;;;13.03;11.37;;;;;;;;;;5040713;28;20680;-84
2023/05/14 11:13:33;;;;;;;20.57;15.20;;;;;;;;;;5033432;28;20234;-84
2023/05/14 11:16:01;;;;;;;7.83;6.17;;;;;;;;;;5030896;28;20611;-84
2023/05/14 11:18:29;;;;;;;6.90;4.73;;;;;;;;;;5043864;28;20206;-84
2023/05/14 11:20:59;;;;;;;6.60;6.00;;;;;;;;;;5042528;28;20618;-84
2023/05/14 11:23:25;;;;;;;5.47;4.87;;;;;;;;;;5044965;28;20211;-84
2023/05/14 11:25:53;;;;;;;5.97;5.33;;;;;;;;;;5030632;28;20203;-84
2023/05/14 11:28:20;;;;;;;5.53;5.03;;;;;;;;;;5044265;28;20281;-85
2023/05/14 11:30:48;;;;;;;10.43;7.90;;;;;;;;;;5042946;28;20210;-86
2023/05/14 11:33:15;;;;;;;12.80;6.87;;;;;;;;;;5050606;28;20233;-85
2023/05/14 11:35:44;;;;;;;6.67;5.50;;;;;;;;;;5050658;28;20214;-84
2023/05/14 11:38:17;;;;;;;5.10;4.70;;;;;;;;;;5017758;28;20595;-85
2023/05/14 11:40:52;;;;;;;7.47;6.00;;;;;;;;;;5044935;28;20213;-84
2023/05/14 11:43:19;;;;;;;19.97;15.63;;;;;;;;;;5050126;28;20198;-85
2023/05/14 11:45:52;;;;;;;9.03;7.83;;;;;;;;;;5034018;28;21501;-84
2023/05/14 11:48:19;;;;;;;18.90;12.43;;;;;;;;;;5030594;28;20207;-85
2023/05/14 11:50:51;;;;;;;18.07;13.83;;;;;;;;;;5020671;28;20590;-85
2023/05/14 11:53:19;;;;;;;11.13;9.87;;;;;;;;;;5038974;28;20232;-85
2023/05/14 11:55:47;;;;;;;11.83;10.60;;;;;;;;;;5030434;28;20212;-85
2023/05/14 11:58:14;;;;;;;20.97;18.73;;;;;;;;;;5030492;28;20587;-84
2023/05/14 12:00:41;;;;;;;24.43;21.93;;;;;;;;;;5029886;28;20685;-85
2023/05/14 12:03:10;;;;;;;16.77;15.30;;;;;;;;;;5030216;28;20218;-85
2023/05/14 12:05:37;;;;;;;11.93;10.87;;;;;;;;;;5043667;28;20211;-83
2023/05/14 12:08:19;;;;;;;14.70;13.50;;;;;;;;;;5029784;28;20210;-84
2023/05/14 12:10:47;;;;;;;16.10;14.80;;;;;;;;;;5027530;28;20221;-84
2023/05/14 12:13:19;;;;;;;8.30;7.47;;;;;;;;;;5049231;28;20321;-84
2023/05/14 12:15:46;;;;;;;8.27;7.23;;;;;;;;;;5040678;28;20210;-84
2023/05/14 12:18:13;;;;;;;6.67;4.93;;;;;;;;;;5042721;28;20234;-84
2023/05/14 12:20:40;;;;;;;5.97;4.90;;;;;;;;;;5039749;28;20202;-83
2023/05/14 12:23:11;;;;;;;5.30;3.70;;;;;;;;;;5049499;28;20248;-83
2023/05/14 12:25:38;;;;;;;4.43;3.87;;;;;;;;;;5038952;28;20692;-84
2023/05/14 12:28:15;;;;;;;27.97;22.70;;;;;;;;;;5042403;28;20194;-83
2023/05/14 12:30:41;;;;;;;27.23;18.50;;;;;;;;;;5041949;28;20771;-84
2023/05/14 12:33:08;;;;;;;41.63;34.00;;;;;;;;;;5049724;28;20241;-84
2023/05/14 12:35:36;;;;;;;12.20;11.00;;;;;;;;;;5049526;28;20266;-87
2023/05/14 12:38:04;;;;;;;10.20;8.03;;;;;;;;;;5030148;28;20203;-84
2023/05/14 12:40:32;;;;;;;6.70;4.40;;;;;;;;;;5042411;28;20600;-84
2023/05/14 12:42:59;;;;;;;6.83;5.50;;;;;;;;;;5036426;28;20675;-84
2023/05/14 12:45:26;;;;;;;7.00;4.93;;;;;;;;;;5048782;28;20210;-84
2023/05/14 12:47:53;;;;;;;5.80;4.93;;;;;;;;;;5030247;28;20625;-84
2023/05/14 12:50:21;;;;;;;7.63;5.60;;;;;;;;;;5029904;28;20219;-87
2023/05/14 12:52:48;;;;;;;7.80;5.63;;;;;;;;;;5036952;28;20236;-84
2023/05/14 12:55:14;;;;;;;7.83;6.03;;;;;;;;;;5036542;27;20211;-84
2023/05/14 12:57:44;;;;;;;9.53;6.60;;;;;;;;;;5040872;28;20206;-83
2023/05/14 13:00:11;;;;;;;21.53;13.07;;;;;;;;;;5031408;28;20199;-83
2023/05/14 13:02:38;;;;;;;9.37;6.33;;;;;;;;;;5040374;28;20214;-83
2023/05/14 13:05:07;;;;;;;3.57;3.27;;;;;;;;;;5044730;28;20220;-83
2023/05/14 13:07:35;;;;;;;4.10;3.17;;;;;;;;;;5039988;28;20217;-83
2023/05/14 13:10:04;;;;;;;4.07;3.67;;;;;;;;;;5042449;28;20199;-82
2023/05/14 13:12:31;;;;;;;5.63;4.13;;;;;;;;;;5039104;28;20233;-82
2023/05/14 13:14:59;;;;;;;4.17;3.87;;;;;;;;;;5048963;28;20209;-82
2023/05/14 13:17:26;;;;;;;4.10;3.70;;;;;;;;;;5048966;28;20203;-82
2023/05/14 13:19:53;;;;;;;6.47;5.07;;;;;;;;;;5048816;28;20213;-82
2023/05/14 13:22:20;;;;;;;7.13;5.03;;;;;;;;;;5037532;28;20207;-81
2023/05/14 13:24:47;;;;;;;4.90;4.50;;;;;;;;;;5032932;28;20574;-82
2023/05/14 13:27:13;;;;;;;5.83;4.30;;;;;;;;;;5048419;28;20618;-82
2023/05/14 13:29:40;;;;;;;4.57;4.13;;;;;;;;;;5035003;28;20680;-81
2023/05/14 13:32:09;;;;;;;5.40;4.90;;;;;;;;;;5047819;28;20289;-82
2023/05/14 13:34:35;;;;;;;7.50;6.13;;;;;;;;;;5047448;28;20202;-81
2023/05/14 13:37:03;;;;;;;7.00;4.63;;;;;;;;;;5050370;28;20594;-82
2023/05/14 13:39:32;;;;;;;10.87;9.47;;;;;;;;;;5043055;28;20642;-82
2023/05/14 13:41:58;;;;;;;16.30;13.03;;;;;;;;;;5041086;28;20209;-82
2023/05/14 13:44:25;;;;;;;8.73;6.50;;;;;;;;;;5043164;28;20199;-82
2023/05/14 13:46:52;;;;;;;8.63;7.83;;;;;;;;;;5040192;28;20233;-82
2023/05/14 13:49:21;;;;;;;9.20;8.23;;;;;;;;;;5048148;28;20214;-82
2023/05/14 13:51:47;;;;;;;7.57;4.90;;;;;;;;;;5047891;28;20294;-82
2023/05/14 13:54:15;;;;;;;5.30;4.03;;;;;;;;;;5047657;28;20226;-82
2023/05/14 13:56:42;;;;;;;5.40;4.90;;;;;;;;;;5048429;28;20220;-82
2023/05/14 13:59:11;;;;;;;4.37;4.00;;;;;;;;;;5034684;28;20201;-83
2023/05/14 14:01:37;;;;;;;6.33;5.77;;;;;;;;;;5047265;28;20708;-83
2023/05/14 14:04:04;;;;;;;5.63;5.03;;;;;;;;;;5048345;28;20628;-82
2023/05/14 14:06:32;;;;;;;5.07;4.67;;;;;;;;;;5047770;28;20203;-82
2023/05/14 14:08:59;;;;;;;4.60;4.20;;;;;;;;;;5040509;28;20290;-83
2023/05/14 14:11:26;;;;;;;7.17;5.07;;;;;;;;;;5028897;28;20594;-83
2023/05/14 14:13:53;;;;;;;6.27;4.23;;;;;;;;;;5048076;28;20279;-83
2023/05/14 14:16:19;;;;;;;4.40;4.00;;;;;;;;;;5034509;28;20210;-83
2023/05/14 14:18:46;;;;;;;4.80;4.03;;;;;;;;;;5040026;28;20294;-83
2023/05/14 14:21:19;;;;;;;5.47;4.90;;;;;;;;;;5040844;28;20293;-83
2023/05/14 14:23:47;;;;;;;7.30;3.73;;;;;;;;;;5038033;28;20212;-83
2023/05/14 14:26:14;;;;;;;4.23;3.90;;;;;;;;;;5030995;28;20588;-83
2023/05/14 14:28:43;;;;;;;7.03;4.87;;;;;;;;;;5027975;28;20234;-83
2023/05/14 14:31:10;;;;;;;5.20;4.63;;;;;;;;;;5027167;28;20209;-83
2023/05/14 14:33:37;;;;;;;4.60;4.20;;;;;;;;;;5038915;28;20232;-83
2023/05/14 14:36:06;;;;;;;29.47;20.67;;;;;;;;;;5042381;28;20210;-83
2023/05/14 14:38:33;;;;;;;9.07;6.37;;;;;;;;;;5027686;28;20210;-83
2023/05/14 14:41:01;;;;;;;5.23;4.67;;;;;;;;;;5040858;28;20203;-83
2023/05/14 14:43:28;;;;;;;15.57;12.23;;;;;;;;;;5040153;28;20209;-83